AST,Max TemperatureF,Mean TemperatureF,Min TemperatureF,Max Dew PointF,MeanDew PointF,Min DewpointF,Max Humidity, Mean Humidity, Min Humidity, Max Sea Level PressureIn, Mean Sea Level PressureIn, Min Sea Level PressureIn, Max VisibilityMiles, Mean VisibilityMiles, Min VisibilityMiles, Max Wind SpeedMPH, Mean Wind SpeedMPH, Max Gust SpeedMPH,PrecipitationIn, CloudCover, Events, WindDirDegrees
2013-9-1,84,79,74,79,77,75,100,89,78,29.95,29.90,29.86,16,7,5,20,9,,0.28,7,Rain-Thunderstorm,103
2013-9-2,85,79,73,77,75,73,100,88,69,29.92,29.88,29.86,17,6,2,14,7,,2.01,6,Rain,121
2013-9-3,83,78,74,79,76,73,100,90,77,29.89,29.85,29.80,16,7,3,10,4,,0.51,6,Rain,179
2013-9-4,89,81,73,81,76,72,100,85,68,29.95,29.91,29.86,17,8,2,9,4,,1.97,6,Rain-Thunderstorm,199
2013-9-5,84,79,74,79,77,75,100,85,72,29.98,29.95,29.89,17,9,6,8,5,,0.24,6,Rain,186
2013-9-6,87,82,76,79,77,75,100,81,60,30.01,29.96,29.92,17,9,6,9,5,,0.08,5,Rain,201
2013-9-7,87,81,75,81,78,75,94,79,67,30.01,29.97,29.92,17,9,6,10,5,,0.08,4,Rain,141
2013-9-8,87,82,76,79,77,73,94,75,62,30.01,29.96,29.92,17,8,6,10,6,,0.00,2,Rain,112
2013-9-9,88,82,77,77,75,73,100,75,58,30.01,29.98,29.95,17,8,6,10,7,,0.12,2,,126
2013-9-10,86,80,75,77,75,73,100,81,67,30.04,29.99,29.95,17,9,6,9,5,,0.20,5,Rain,140
2013-9-11,87,81,75,79,75,72,94,76,55,29.99,29.94,29.86,17,8,6,7,4,,0.04,4,,92
2013-9-12,88,83,78,77,76,75,94,74,58,29.86,29.80,29.77,17,9,6,15,10,,0.00,5,,80
2013-9-13,88,82,76,79,76,74,94,77,60,29.83,29.78,29.74,17,9,6,8,6,,0.00,4,Rain,114
2013-9-14,88,82,75,79,77,73,94,80,60,29.95,29.89,29.86,17,7,4,8,5,,0.00,5,Rain-Thunderstorm,191
2013-9-15,88,82,75,79,78,75,94,77,64,30.03,29.98,29.95,17,9,6,12,6,,0.00,5,,126
2013-9-16,88,83,78,79,77,75,94,77,60,30.01,29.95,29.89,17,9,6,13,6,25,0.08,4,Rain,118
2013-9-17,88,85,82,77,76,73,79,71,58,29.98,29.92,29.89,17,9,6,10,8,,0.00,6,,113
2013-9-18,87,82,77,79,77,75,100,84,70,29.98,29.93,29.89,16,8,1,9,5,,0.08,6,Rain,165
2013-9-19,88,82,76,79,77,75,94,77,63,30.01,29.97,29.92,17,9,6,9,5,,0.00,6,,151
2013-9-20,87,80,74,77,76,73,94,75,65,29.97,29.93,29.89,17,9,6,12,7,,0.00,3,,136
2013-9-21,87,80,72,75,74,72,94,72,55,29.95,29.91,29.86,17,9,6,12,8,,0.00,5,,126
2013-9-22,88,80,72,77,75,70,94,78,60,30.01,29.96,29.92,17,9,6,9,7,,0.00,4,Thunderstorm,159
2013-9-23,88,82,76,78,76,75,94,73,57,30.06,30.01,29.98,17,9,6,9,6,,0.02,4,Rain,133
2013-9-24,88,82,76,79,75,73,94,74,59,30.04,29.97,29.92,17,9,6,10,6,,0.08,3,Rain,125
2013-9-25,88,81,74,76,74,59,94,71,38,29.98,29.93,29.89,19,9,6,9,5,,0.00,2,Rain,145
2013-9-26,88,81,74,77,75,73,94,73,53,29.98,29.92,29.86,17,9,6,12,7,,0.00,3,,169
2013-9-27,89,82,75,79,76,73,94,75,57,29.99,29.93,29.89,17,8,6,9,7,,0.04,2,Rain,129
2013-9-28,89,83,77,79,77,76,100,75,61,30.02,29.96,29.92,19,9,6,9,6,,0.00,3,Rain,137
2013-9-29,89,83,77,79,77,75,89,76,62,30.01,29.97,29.92,17,8,0,102,8,,0.03,3,Rain,120
2013-9-30,89,84,79,77,75,73,79,69,54,30.04,29.99,29.95,17,8,6,14,8,,0.00,4,,106